KPDC

Details ICAO KPDC
Name Prairie Du Chien Muni
Region United States
Timezone America/Chicago (UTC-5.0)
Plans Departing 1
Arriving 2
Stats Elevation 661 ft / 201 m (AMSL)
Location 43.019540° -91.123822°
Runways 2
Magnetic Variation 1.334° W
Sunrise 2018-05-21 10:36:55 UTC / 2018-05-21 05:36:55 Local
Sunset 2018-05-22 01:28:08 UTC / 2018-05-21 20:28:08 Local
Advertisement - Login to hide

Runways

ID Width Length Bearing (true) Bearing (mag) Surface Threshold Offset Overrun Length
11 75 ft / 23 m 3,991 ft / 1,217 m 110.44° 111.77° Asphalt 0 ft / 0 m 0 ft / 0 m
14 75 ft / 23 m 4,999 ft / 1,524 m 140.10° 141.43° Asphalt 0 ft / 0 m 0 ft / 0 m
29 75 ft / 23 m 3,991 ft / 1,217 m 290.45° 291.78° Asphalt 0 ft / 0 m 0 ft / 0 m
32 75 ft / 23 m 4,999 ft / 1,524 m 320.11° 321.44° Asphalt 0 ft / 0 m 0 ft / 0 m

Map

Weather


0- 5 10 15 20 25 30 35+ Temperature / ° C

Clouds and Precipitation
Forecast for 2018-05-21 12:00 UTC. Updated 6 minutes ago

Ground ~20,000 ft ~40,000 ft Winds

METAR

KPDC 211115Z AUTO 00000KT 10SM DZ OVC016 11/08 A3011 RMK AO2 T01100075

TAF

Not found

Frequencies

Recorded 119.92 MHz AWOS 3
Approach 133.95 MHz CHICAGO APP/DEP
Unicom 122.80 MHz CTAF/UNICOM
Warning: Do not use this data for real-world aviation or navigation. No guarantee of current accuracy is given.